Aviation Digital Data Service (ADDS)

Output produced by METARs form (2212 UTC 18 January 2017)
found at http://aviationweather.gov/adds/metars/
 
KSBY 181722Z 1818/1918 36010G18KT P6SM BKN070 
     FM182100 32010KT P6SM BKN120 
     FM190400 33006KT P6SM SKC